sensor_id;sensor_type;location;lat;lon;timestamp;temperature;humidity
70271;SHT31;57680;54.292;18.598;2023-07-13T00:00:55;15.34;90.41
70271;SHT31;57680;54.292;18.598;2023-07-13T00:03:20;15.29;90.59
70271;SHT31;57680;54.292;18.598;2023-07-13T00:05:46;15.22;91.04
70271;SHT31;57680;54.292;18.598;2023-07-13T00:08:11;15.18;90.95
70271;SHT31;57680;54.292;18.598;2023-07-13T00:10:40;15.14;92.15
70271;SHT31;57680;54.292;18.598;2023-07-13T00:13:06;15.16;93.29
70271;SHT31;57680;54.292;18.598;2023-07-13T00:15:32;15.10;94.77
70271;SHT31;57680;54.292;18.598;2023-07-13T00:17:57;15.09;94.45
70271;SHT31;57680;54.292;18.598;2023-07-13T00:20:24;15.03;95.04
70271;SHT31;57680;54.292;18.598;2023-07-13T00:22:51;15.02;94.77
70271;SHT31;57680;54.292;18.598;2023-07-13T00:25:16;14.96;93.72
70271;SHT31;57680;54.292;18.598;2023-07-13T00:27:43;14.96;93.42
70271;SHT31;57680;54.292;18.598;2023-07-13T00:30:09;14.96;92.93
70271;SHT31;57680;54.292;18.598;2023-07-13T00:32:35;14.88;92.83
70271;SHT31;57680;54.292;18.598;2023-07-13T00:35:01;14.85;92.64
70271;SHT31;57680;54.292;18.598;2023-07-13T00:37:27;14.85;92.81
70271;SHT31;57680;54.292;18.598;2023-07-13T00:39:52;14.81;92.67
70271;SHT31;57680;54.292;18.598;2023-07-13T00:42:18;14.81;92.71
70271;SHT31;57680;54.292;18.598;2023-07-13T00:45:07;14.82;93.43
70271;SHT31;57680;54.292;18.598;2023-07-13T00:47:48;14.85;92.71
70271;SHT31;57680;54.292;18.598;2023-07-13T00:50:15;14.89;93.16
70271;SHT31;57680;54.292;18.598;2023-07-13T00:52:44;14.81;92.77
70271;SHT31;57680;54.292;18.598;2023-07-13T00:55:10;14.76;92.88
70271;SHT31;57680;54.292;18.598;2023-07-13T00:57:37;14.71;92.95
70271;SHT31;57680;54.292;18.598;2023-07-13T01:00:04;14.64;93.24
70271;SHT31;57680;54.292;18.598;2023-07-13T01:02:30;14.60;93.44
70271;SHT31;57680;54.292;18.598;2023-07-13T01:04:56;14.55;93.60
70271;SHT31;57680;54.292;18.598;2023-07-13T01:07:22;14.49;93.77
70271;SHT31;57680;54.292;18.598;2023-07-13T01:09:47;14.51;94.23
70271;SHT31;57680;54.292;18.598;2023-07-13T01:12:13;14.58;94.30
70271;SHT31;57680;54.292;18.598;2023-07-13T01:14:38;14.58;94.00
70271;SHT31;57680;54.292;18.598;2023-07-13T01:17:04;14.60;94.05
70271;SHT31;57680;54.292;18.598;2023-07-13T01:19:36;14.55;93.90
70271;SHT31;57680;54.292;18.598;2023-07-13T01:22:10;14.55;94.41
70271;SHT31;57680;54.292;18.598;2023-07-13T01:24:38;14.54;94.12
70271;SHT31;57680;54.292;18.598;2023-07-13T01:27:06;14.51;94.09
70271;SHT31;57680;54.292;18.598;2023-07-13T01:29:32;14.46;94.44
70271;SHT31;57680;54.292;18.598;2023-07-13T01:31:58;14.42;94.44
70271;SHT31;57680;54.292;18.598;2023-07-13T01:34:23;14.41;94.82
70271;SHT31;57680;54.292;18.598;2023-07-13T01:36:49;14.35;94.85
70271;SHT31;57680;54.292;18.598;2023-07-13T01:39:14;14.30;94.83
70271;SHT31;57680;54.292;18.598;2023-07-13T01:41:40;14.25;94.92
70271;SHT31;57680;54.292;18.598;2023-07-13T01:44:05;14.24;95.15
70271;SHT31;57680;54.292;18.598;2023-07-13T01:46:31;14.20;95.22
70271;SHT31;57680;54.292;18.598;2023-07-13T01:48:56;14.20;95.05
70271;SHT31;57680;54.292;18.598;2023-07-13T01:51:22;14.17;94.93
70271;SHT31;57680;54.292;18.598;2023-07-13T01:53:47;14.12;94.90
70271;SHT31;57680;54.292;18.598;2023-07-13T01:56:13;14.12;94.91
70271;SHT31;57680;54.292;18.598;2023-07-13T01:58:38;14.10;94.94
70271;SHT31;57680;54.292;18.598;2023-07-13T02:01:04;14.06;95.06
70271;SHT31;57680;54.292;18.598;2023-07-13T02:03:29;14.04;95.00
70271;SHT31;57680;54.292;18.598;2023-07-13T02:05:54;14.04;95.15
70271;SHT31;57680;54.292;18.598;2023-07-13T02:08:20;14.09;95.62
70271;SHT31;57680;54.292;18.598;2023-07-13T02:10:45;14.13;95.51
70271;SHT31;57680;54.292;18.598;2023-07-13T02:13:11;14.16;95.61
70271;SHT31;57680;54.292;18.598;2023-07-13T02:15:39;14.20;95.61
70271;SHT31;57680;54.292;18.598;2023-07-13T02:18:05;14.24;95.57
70271;SHT31;57680;54.292;18.598;2023-07-13T02:20:30;14.25;95.52
70271;SHT31;57680;54.292;18.598;2023-07-13T02:22:56;14.31;95.41
70271;SHT31;57680;54.292;18.598;2023-07-13T02:25:21;14.27;95.13
70271;SHT31;57680;54.292;18.598;2023-07-13T02:27:47;14.30;95.24
70271;SHT31;57680;54.292;18.598;2023-07-13T02:30:12;14.27;95.13
70271;SHT31;57680;54.292;18.598;2023-07-13T02:32:37;14.30;95.08
70271;SHT31;57680;54.292;18.598;2023-07-13T02:35:03;14.33;95.06
70271;SHT31;57680;54.292;18.598;2023-07-13T02:37:29;14.34;95.03
70271;SHT31;57680;54.292;18.598;2023-07-13T02:39:54;14.38;94.94
70271;SHT31;57680;54.292;18.598;2023-07-13T02:42:20;14.46;94.76
70271;SHT31;57680;54.292;18.598;2023-07-13T02:44:45;14.57;94.61
70271;SHT31;57680;54.292;18.598;2023-07-13T02:47:11;14.67;94.34
70271;SHT31;57680;54.292;18.598;2023-07-13T02:49:36;14.86;94.40
70271;SHT31;57680;54.292;18.598;2023-07-13T02:52:02;15.03;93.69
70271;SHT31;57680;54.292;18.598;2023-07-13T02:54:27;15.24;93.15
70271;SHT31;57680;54.292;18.598;2023-07-13T02:56:53;15.39;92.72
70271;SHT31;57680;54.292;18.598;2023-07-13T02:59:18;15.43;92.09
70271;SHT31;57680;54.292;18.598;2023-07-13T03:01:44;15.33;92.24
70271;SHT31;57680;54.292;18.598;2023-07-13T03:04:09;15.19;92.23
70271;SHT31;57680;54.292;18.598;2023-07-13T03:06:35;15.09;92.70
70271;SHT31;57680;54.292;18.598;2023-07-13T03:09:00;15.07;93.07
70271;SHT31;57680;54.292;18.598;2023-07-13T03:11:26;15.05;93.17
70271;SHT31;57680;54.292;18.598;2023-07-13T03:13:51;15.07;93.71
70271;SHT31;57680;54.292;18.598;2023-07-13T03:16:17;15.14;94.31
70271;SHT31;57680;54.292;18.598;2023-07-13T03:18:43;15.23;94.35
70271;SHT31;57680;54.292;18.598;2023-07-13T03:21:09;15.37;94.60
70271;SHT31;57680;54.292;18.598;2023-07-13T03:23:34;15.49;94.42
70271;SHT31;57680;54.292;18.598;2023-07-13T03:26:09;15.61;94.19
70271;SHT31;57680;54.292;18.598;2023-07-13T03:28:35;15.70;94.08
70271;SHT31;57680;54.292;18.598;2023-07-13T03:31:08;15.77;93.93
70271;SHT31;57680;54.292;18.598;2023-07-13T03:33:34;15.82;93.65
70271;SHT31;57680;54.292;18.598;2023-07-13T03:35:59;15.91;93.53
70271;SHT31;57680;54.292;18.598;2023-07-13T03:38:24;16.00;93.37
70271;SHT31;57680;54.292;18.598;2023-07-13T03:40:50;16.05;93.12
70271;SHT31;57680;54.292;18.598;2023-07-13T03:43:16;16.11;92.88
70271;SHT31;57680;54.292;18.598;2023-07-13T03:45:41;16.30;92.60
70271;SHT31;57680;54.292;18.598;2023-07-13T03:48:06;16.62;92.04
70271;SHT31;57680;54.292;18.598;2023-07-13T03:50:32;17.13;90.34
70271;SHT31;57680;54.292;18.598;2023-07-13T03:52:58;17.59;89.43
70271;SHT31;57680;54.292;18.598;2023-07-13T03:55:23;18.09;88.58
70271;SHT31;57680;54.292;18.598;2023-07-13T03:58:25;18.38;86.12
70271;SHT31;57680;54.292;18.598;2023-07-13T04:00:45;19.50;82.74
70271;SHT31;57680;54.292;18.598;2023-07-13T04:03:10;19.97;80.81
70271;SHT31;57680;54.292;18.598;2023-07-13T04:05:36;20.42;78.12
70271;SHT31;57680;54.292;18.598;2023-07-13T04:08:01;20.87;77.38
70271;SHT31;57680;54.292;18.598;2023-07-13T04:10:27;20.90;76.53
70271;SHT31;57680;54.292;18.598;2023-07-13T04:12:52;21.26;75.64
70271;SHT31;57680;54.292;18.598;2023-07-13T04:15:18;21.26;73.46
70271;SHT31;57680;54.292;18.598;2023-07-13T04:17:45;21.63;74.15
70271;SHT31;57680;54.292;18.598;2023-07-13T04:20:10;21.78;73.08
70271;SHT31;57680;54.292;18.598;2023-07-13T04:22:36;21.85;72.63
70271;SHT31;57680;54.292;18.598;2023-07-13T04:25:01;22.22;72.50
70271;SHT31;57680;54.292;18.598;2023-07-13T04:27:27;22.28;70.85
70271;SHT31;57680;54.292;18.598;2023-07-13T04:29:52;22.28;71.33
70271;SHT31;57680;54.292;18.598;2023-07-13T04:32:19;22.29;70.69
70271;SHT31;57680;54.292;18.598;2023-07-13T04:34:44;22.40;69.68
70271;SHT31;57680;54.292;18.598;2023-07-13T04:37:10;22.49;70.08
70271;SHT31;57680;54.292;18.598;2023-07-13T04:39:35;22.54;70.62
70271;SHT31;57680;54.292;18.598;2023-07-13T04:42:01;22.59;70.09
70271;SHT31;57680;54.292;18.598;2023-07-13T04:44:26;22.84;69.59
70271;SHT31;57680;54.292;18.598;2023-07-13T04:46:52;23.16;68.61
70271;SHT31;57680;54.292;18.598;2023-07-13T04:49:17;23.33;68.83
70271;SHT31;57680;54.292;18.598;2023-07-13T04:51:43;23.38;67.96
70271;SHT31;57680;54.292;18.598;2023-07-13T04:54:08;23.42;66.97
70271;SHT31;57680;54.292;18.598;2023-07-13T04:56:35;23.67;68.40
70271;SHT31;57680;54.292;18.598;2023-07-13T04:59:00;23.80;66.58
70271;SHT31;57680;54.292;18.598;2023-07-13T05:01:26;23.89;66.88
70271;SHT31;57680;54.292;18.598;2023-07-13T05:03:51;23.97;67.30
70271;SHT31;57680;54.292;18.598;2023-07-13T05:06:17;24.20;65.63
70271;SHT31;57680;54.292;18.598;2023-07-13T05:08:42;24.24;64.20
70271;SHT31;57680;54.292;18.598;2023-07-13T05:11:08;24.45;64.48
70271;SHT31;57680;54.292;18.598;2023-07-13T05:13:34;24.76;64.01
70271;SHT31;57680;54.292;18.598;2023-07-13T05:16:04;24.62;64.53
70271;SHT31;57680;54.292;18.598;2023-07-13T05:18:30;24.28;66.29
70271;SHT31;57680;54.292;18.598;2023-07-13T05:21:05;24.39;63.64
70271;SHT31;57680;54.292;18.598;2023-07-13T05:23:31;24.35;64.08
70271;SHT31;57680;54.292;18.598;2023-07-13T05:25:58;24.54;64.64
70271;SHT31;57680;54.292;18.598;2023-07-13T05:28:23;24.08;64.26
70271;SHT31;57680;54.292;18.598;2023-07-13T05:30:49;24.18;63.85
70271;SHT31;57680;54.292;18.598;2023-07-13T05:33:15;24.42;63.78
70271;SHT31;57680;54.292;18.598;2023-07-13T05:35:41;24.47;63.85
70271;SHT31;57680;54.292;18.598;2023-07-13T05:38:07;24.41;62.52
70271;SHT31;57680;54.292;18.598;2023-07-13T05:40:33;24.69;63.52
70271;SHT31;57680;54.292;18.598;2023-07-13T05:42:58;24.99;62.39
70271;SHT31;57680;54.292;18.598;2023-07-13T05:45:24;25.44;62.12
70271;SHT31;57680;54.292;18.598;2023-07-13T05:47:49;25.73;60.77
70271;SHT31;57680;54.292;18.598;2023-07-13T05:50:15;25.81;58.23
70271;SHT31;57680;54.292;18.598;2023-07-13T05:52:40;25.88;58.81
70271;SHT31;57680;54.292;18.598;2023-07-13T05:55:06;25.60;58.13
70271;SHT31;57680;54.292;18.598;2023-07-13T05:57:32;25.36;59.37
70271;SHT31;57680;54.292;18.598;2023-07-13T05:59:57;25.12;59.46
70271;SHT31;57680;54.292;18.598;2023-07-13T06:02:23;24.90;59.86
70271;SHT31;57680;54.292;18.598;2023-07-13T06:04:48;24.98;59.75
70271;SHT31;57680;54.292;18.598;2023-07-13T06:07:14;24.88;60.39
70271;SHT31;57680;54.292;18.598;2023-07-13T06:09:40;24.95;59.83
70271;SHT31;57680;54.292;18.598;2023-07-13T06:12:06;25.06;59.87
70271;SHT31;57680;54.292;18.598;2023-07-13T06:14:31;24.96;60.61
70271;SHT31;57680;54.292;18.598;2023-07-13T06:16:57;25.48;58.89
70271;SHT31;57680;54.292;18.598;2023-07-13T06:19:22;25.64;58.19
70271;SHT31;57680;54.292;18.598;2023-07-13T06:21:48;25.12;61.44
70271;SHT31;57680;54.292;18.598;2023-07-13T06:24:13;25.50;59.50
70271;SHT31;57680;54.292;18.598;2023-07-13T06:26:39;25.87;58.51
70271;SHT31;57680;54.292;18.598;2023-07-13T06:29:04;24.80;60.63
70271;SHT31;57680;54.292;18.598;2023-07-13T06:31:32;23.84;63.28
70271;SHT31;57680;54.292;18.598;2023-07-13T06:33:57;24.32;62.65
70271;SHT31;57680;54.292;18.598;2023-07-13T06:36:23;23.35;63.93
70271;SHT31;57680;54.292;18.598;2023-07-13T06:38:48;22.86;65.62
70271;SHT31;57680;54.292;18.598;2023-07-13T06:41:14;22.32;66.20
70271;SHT31;57680;54.292;18.598;2023-07-13T06:43:39;22.16;67.99
70271;SHT31;57680;54.292;18.598;2023-07-13T06:46:05;22.10;68.34
70271;SHT31;57680;54.292;18.598;2023-07-13T06:48:31;22.39;68.50
70271;SHT31;57680;54.292;18.598;2023-07-13T06:50:56;22.43;68.14
70271;SHT31;57680;54.292;18.598;2023-07-13T06:53:22;22.16;66.51
70271;SHT31;57680;54.292;18.598;2023-07-13T06:55:48;22.87;66.85
70271;SHT31;57680;54.292;18.598;2023-07-13T06:58:16;23.50;63.64
70271;SHT31;57680;54.292;18.598;2023-07-13T07:00:41;23.79;61.35
70271;SHT31;57680;54.292;18.598;2023-07-13T07:03:07;23.80;61.38
70271;SHT31;57680;54.292;18.598;2023-07-13T07:05:32;23.76;62.46
70271;SHT31;57680;54.292;18.598;2023-07-13T07:07:58;23.73;59.52
70271;SHT31;57680;54.292;18.598;2023-07-13T07:10:24;23.86;59.31
70271;SHT31;57680;54.292;18.598;2023-07-13T07:12:50;23.30;61.13
70271;SHT31;57680;54.292;18.598;2023-07-13T07:15:16;22.80;65.24
70271;SHT31;57680;54.292;18.598;2023-07-13T07:17:42;22.71;64.17
70271;SHT31;57680;54.292;18.598;2023-07-13T07:20:08;23.45;62.20
70271;SHT31;57680;54.292;18.598;2023-07-13T07:22:34;23.37;64.74
70271;SHT31;57680;54.292;18.598;2023-07-13T07:24:59;23.37;62.97
70271;SHT31;57680;54.292;18.598;2023-07-13T07:27:25;23.83;60.59
70271;SHT31;57680;54.292;18.598;2023-07-13T07:29:50;23.39;61.46
70271;SHT31;57680;54.292;18.598;2023-07-13T07:32:16;23.08;61.61
70271;SHT31;57680;54.292;18.598;2023-07-13T07:34:41;22.86;65.33
70271;SHT31;57680;54.292;18.598;2023-07-13T07:37:11;22.70;63.81
70271;SHT31;57680;54.292;18.598;2023-07-13T07:39:36;23.45;63.77
70271;SHT31;57680;54.292;18.598;2023-07-13T07:42:02;23.56;62.82
70271;SHT31;57680;54.292;18.598;2023-07-13T07:44:27;23.48;63.15
70271;SHT31;57680;54.292;18.598;2023-07-13T07:46:53;23.07;63.03
70271;SHT31;57680;54.292;18.598;2023-07-13T07:49:18;22.70;63.82
70271;SHT31;57680;54.292;18.598;2023-07-13T07:51:44;22.32;64.90
70271;SHT31;57680;54.292;18.598;2023-07-13T07:54:10;22.03;66.01
70271;SHT31;57680;54.292;18.598;2023-07-13T07:56:36;21.93;66.63
70271;SHT31;57680;54.292;18.598;2023-07-13T07:59:02;22.23;66.07
70271;SHT31;57680;54.292;18.598;2023-07-13T08:01:27;22.20;66.42
70271;SHT31;57680;54.292;18.598;2023-07-13T08:03:53;22.84;65.20
70271;SHT31;57680;54.292;18.598;2023-07-13T08:06:18;23.28;63.63
70271;SHT31;57680;54.292;18.598;2023-07-13T08:08:43;23.74;61.07
70271;SHT31;57680;54.292;18.598;2023-07-13T08:11:09;24.32;59.39
70271;SHT31;57680;54.292;18.598;2023-07-13T08:13:34;24.78;60.17
70271;SHT31;57680;54.292;18.598;2023-07-13T08:16:00;25.38;59.48
70271;SHT31;57680;54.292;18.598;2023-07-13T08:18:26;25.94;58.64
70271;SHT31;57680;54.292;18.598;2023-07-13T08:20:51;25.24;57.18
70271;SHT31;57680;54.292;18.598;2023-07-13T08:23:17;25.41;57.44
70271;SHT31;57680;54.292;18.598;2023-07-13T08:25:42;25.48;58.59
70271;SHT31;57680;54.292;18.598;2023-07-13T08:28:08;24.61;58.52
70271;SHT31;57680;54.292;18.598;2023-07-13T08:30:34;24.07;57.41
70271;SHT31;57680;54.292;18.598;2023-07-13T08:32:59;23.49;58.56
70271;SHT31;57680;54.292;18.598;2023-07-13T08:35:25;23.33;59.52
70271;SHT31;57680;54.292;18.598;2023-07-13T08:37:51;23.50;60.63
70271;SHT31;57680;54.292;18.598;2023-07-13T08:40:25;24.41;56.91
70271;SHT31;57680;54.292;18.598;2023-07-13T08:42:54;25.02;55.13
70271;SHT31;57680;54.292;18.598;2023-07-13T08:45:48;25.82;55.91
70271;SHT31;57680;54.292;18.598;2023-07-13T08:48:38;25.75;53.77
70271;SHT31;57680;54.292;18.598;2023-07-13T08:54:38;25.84;53.88
70271;SHT31;57680;54.292;18.598;2023-07-13T08:57:20;25.20;53.98
70271;SHT31;57680;54.292;18.598;2023-07-13T08:59:46;24.57;56.39
70271;SHT31;57680;54.292;18.598;2023-07-13T09:02:17;23.76;59.57
70271;SHT31;57680;54.292;18.598;2023-07-13T09:04:45;23.32;58.83
70271;SHT31;57680;54.292;18.598;2023-07-13T09:14:51;25.10;54.78
70271;SHT31;57680;54.292;18.598;2023-07-13T09:17:23;25.22;54.55
70271;SHT31;57680;54.292;18.598;2023-07-13T09:19:57;24.93;54.22
70271;SHT31;57680;54.292;18.598;2023-07-13T09:22:26;25.17;54.91
70271;SHT31;57680;54.292;18.598;2023-07-13T09:25:02;25.50;55.76
70271;SHT31;57680;54.292;18.598;2023-07-13T09:27:36;25.80;53.86
70271;SHT31;57680;54.292;18.598;2023-07-13T09:32:47;26.47;53.37
70271;SHT31;57680;54.292;18.598;2023-07-13T09:35:17;26.52;53.27
70271;SHT31;57680;54.292;18.598;2023-07-13T09:37:45;26.15;50.04
70271;SHT31;57680;54.292;18.598;2023-07-13T09:40:28;25.67;51.33
70271;SHT31;57680;54.292;18.598;2023-07-13T09:42:56;25.48;54.40
70271;SHT31;57680;54.292;18.598;2023-07-13T09:45:28;25.22;52.75
70271;SHT31;57680;54.292;18.598;2023-07-13T09:48:11;24.90;52.70
70271;SHT31;57680;54.292;18.598;2023-07-13T09:50:37;25.07;53.85
70271;SHT31;57680;54.292;18.598;2023-07-13T09:53:03;24.76;52.69
70271;SHT31;57680;54.292;18.598;2023-07-13T09:57:53;24.52;55.09
70271;SHT31;57680;54.292;18.598;2023-07-13T10:00:28;24.59;53.45
70271;SHT31;57680;54.292;18.598;2023-07-13T10:05:38;24.76;50.76
70271;SHT31;57680;54.292;18.598;2023-07-13T10:08:04;24.83;52.58
70271;SHT31;57680;54.292;18.598;2023-07-13T10:10:29;24.89;51.22
70271;SHT31;57680;54.292;18.598;2023-07-13T10:12:54;24.92;50.78
70271;SHT31;57680;54.292;18.598;2023-07-13T10:15:24;24.90;52.29
70271;SHT31;57680;54.292;18.598;2023-07-13T10:17:52;24.98;52.98
70271;SHT31;57680;54.292;18.598;2023-07-13T10:20:18;25.30;54.04
70271;SHT31;57680;54.292;18.598;2023-07-13T10:23:07;25.68;52.45
70271;SHT31;57680;54.292;18.598;2023-07-13T10:25:39;26.14;50.55
70271;SHT31;57680;54.292;18.598;2023-07-13T10:28:16;26.60;49.90
70271;SHT31;57680;54.292;18.598;2023-07-13T10:30:46;26.67;48.18
70271;SHT31;57680;54.292;18.598;2023-07-13T10:33:12;26.83;48.30
70271;SHT31;57680;54.292;18.598;2023-07-13T10:35:41;26.84;48.38
70271;SHT31;57680;54.292;18.598;2023-07-13T10:38:12;25.88;51.01
70271;SHT31;57680;54.292;18.598;2023-07-13T10:40:45;24.52;53.46
70271;SHT31;57680;54.292;18.598;2023-07-13T10:43:20;23.25;55.56
70271;SHT31;57680;54.292;18.598;2023-07-13T10:45:48;22.64;56.88
70271;SHT31;57680;54.292;18.598;2023-07-13T10:48:15;22.64;57.89
70271;SHT31;57680;54.292;18.598;2023-07-13T10:50:43;22.84;55.71
70271;SHT31;57680;54.292;18.598;2023-07-13T10:53:21;22.81;57.71
70271;SHT31;57680;54.292;18.598;2023-07-13T10:58:22;22.65;56.28
70271;SHT31;57680;54.292;18.598;2023-07-13T11:03:30;23.18;56.83
70271;SHT31;57680;54.292;18.598;2023-07-13T11:06:18;22.84;56.20
70271;SHT31;57680;54.292;18.598;2023-07-13T11:08:55;22.64;57.89
70271;SHT31;57680;54.292;18.598;2023-07-13T11:19:37;22.56;57.99
70271;SHT31;57680;54.292;18.598;2023-07-13T11:22:16;22.67;58.60
70271;SHT31;57680;54.292;18.598;2023-07-13T11:24:59;22.67;57.23
70271;SHT31;57680;54.292;18.598;2023-07-13T11:27:38;22.70;58.18
70271;SHT31;57680;54.292;18.598;2023-07-13T11:36:29;23.04;56.32
70271;SHT31;57680;54.292;18.598;2023-07-13T11:38:38;23.15;56.97
70271;SHT31;57680;54.292;18.598;2023-07-13T11:43:33;23.04;55.65
70271;SHT31;57680;54.292;18.598;2023-07-13T11:45:58;23.01;56.00
70271;SHT31;57680;54.292;18.598;2023-07-13T11:48:29;23.05;56.81
70271;SHT31;57680;54.292;18.598;2023-07-13T11:51:02;23.48;56.51
70271;SHT31;57680;54.292;18.598;2023-07-13T11:53:38;23.71;56.33
70271;SHT31;57680;54.292;18.598;2023-07-13T11:56:04;23.58;55.44
70271;SHT31;57680;54.292;18.598;2023-07-13T11:58:30;23.80;57.40
70271;SHT31;57680;54.292;18.598;2023-07-13T12:00:58;23.99;56.95
70271;SHT31;57680;54.292;18.598;2023-07-13T12:03:25;24.07;59.22
70271;SHT31;57680;54.292;18.598;2023-07-13T12:05:58;23.97;60.21
70271;SHT31;57680;54.292;18.598;2023-07-13T12:08:25;24.13;61.70
70271;SHT31;57680;54.292;18.598;2023-07-13T12:10:59;24.04;58.43
70271;SHT31;57680;54.292;18.598;2023-07-13T12:13:27;24.13;58.76
70271;SHT31;57680;54.292;18.598;2023-07-13T12:15:52;24.06;57.82
70271;SHT31;57680;54.292;18.598;2023-07-13T12:18:23;23.93;58.64
70271;SHT31;57680;54.292;18.598;2023-07-13T12:20:56;23.97;61.14
70271;SHT31;57680;54.292;18.598;2023-07-13T12:23:31;23.87;61.43
70271;SHT31;57680;54.292;18.598;2023-07-13T12:25:58;23.71;63.20
70271;SHT31;57680;54.292;18.598;2023-07-13T12:28:35;23.19;61.19
70271;SHT31;57680;54.292;18.598;2023-07-13T12:31:03;23.15;63.90
70271;SHT31;57680;54.292;18.598;2023-07-13T12:33:30;23.16;64.26
70271;SHT31;57680;54.292;18.598;2023-07-13T12:35:56;23.26;63.76
70271;SHT31;57680;54.292;18.598;2023-07-13T12:38:24;23.19;65.40
70271;SHT31;57680;54.292;18.598;2023-07-13T12:40:51;23.23;64.94
70271;SHT31;57680;54.292;18.598;2023-07-13T12:43:19;23.05;65.21
70271;SHT31;57680;54.292;18.598;2023-07-13T12:48:23;22.77;66.33
70271;SHT31;57680;54.292;18.598;2023-07-13T12:50:49;22.60;66.75
70271;SHT31;57680;54.292;18.598;2023-07-13T12:53:19;22.60;67.99
70271;SHT31;57680;54.292;18.598;2023-07-13T12:56:02;22.68;67.84
70271;SHT31;57680;54.292;18.598;2023-07-13T12:58:40;22.26;66.02
70271;SHT31;57680;54.292;18.598;2023-07-13T13:01:07;22.06;68.11
70271;SHT31;57680;54.292;18.598;2023-07-13T13:03:40;21.90;68.85
70271;SHT31;57680;54.292;18.598;2023-07-13T13:06:20;21.78;68.95
70271;SHT31;57680;54.292;18.598;2023-07-13T13:08:58;21.74;68.39
70271;SHT31;57680;54.292;18.598;2023-07-13T13:11:24;21.88;68.34
70271;SHT31;57680;54.292;18.598;2023-07-13T13:13:50;21.96;67.82
70271;SHT31;57680;54.292;18.598;2023-07-13T13:16:24;22.17;67.82
70271;SHT31;57680;54.292;18.598;2023-07-13T13:18:55;22.17;66.30
70271;SHT31;57680;54.292;18.598;2023-07-13T13:21:22;22.09;66.63
70271;SHT31;57680;54.292;18.598;2023-07-13T13:23:48;22.13;67.34
70271;SHT31;57680;54.292;18.598;2023-07-13T13:26:15;22.09;68.25
70271;SHT31;57680;54.292;18.598;2023-07-13T13:28:44;22.28;68.14
70271;SHT31;57680;54.292;18.598;2023-07-13T13:31:10;22.41;66.59
70271;SHT31;57680;54.292;18.598;2023-07-13T13:33:36;22.54;67.60
70271;SHT31;57680;54.292;18.598;2023-07-13T13:36:01;22.68;67.80
70271;SHT31;57680;54.292;18.598;2023-07-13T13:38:27;22.75;65.66
70271;SHT31;57680;54.292;18.598;2023-07-13T13:40:53;22.05;67.82
70271;SHT31;57680;54.292;18.598;2023-07-13T13:43:22;21.82;68.29
70271;SHT31;57680;54.292;18.598;2023-07-13T13:45:47;21.58;69.60
70271;SHT31;57680;54.292;18.598;2023-07-13T13:48:23;21.38;70.25
70271;SHT31;57680;54.292;18.598;2023-07-13T13:50:51;21.30;70.32
70271;SHT31;57680;54.292;18.598;2023-07-13T13:53:17;21.19;69.83
70271;SHT31;57680;54.292;18.598;2023-07-13T13:55:42;21.15;70.25
70271;SHT31;57680;54.292;18.598;2023-07-13T13:58:09;21.17;70.18
70271;SHT31;57680;54.292;18.598;2023-07-13T14:00:35;21.24;69.61
70271;SHT31;57680;54.292;18.598;2023-07-13T14:03:01;21.61;69.38
70271;SHT31;57680;54.292;18.598;2023-07-13T14:05:26;21.89;68.72
70271;SHT31;57680;54.292;18.598;2023-07-13T14:07:53;21.74;68.24
70271;SHT31;57680;54.292;18.598;2023-07-13T14:10:19;21.48;67.55
70271;SHT31;57680;54.292;18.598;2023-07-13T14:12:54;21.50;67.45
70271;SHT31;57680;54.292;18.598;2023-07-13T14:15:28;21.51;67.50
70271;SHT31;57680;54.292;18.598;2023-07-13T14:17:54;21.45;67.87
70271;SHT31;57680;54.292;18.598;2023-07-13T14:20:21;21.38;67.78
70271;SHT31;57680;54.292;18.598;2023-07-13T14:22:49;21.30;67.54
70271;SHT31;57680;54.292;18.598;2023-07-13T14:25:15;21.31;68.39
70271;SHT31;57680;54.292;18.598;2023-07-13T14:27:43;21.51;67.80
70271;SHT31;57680;54.292;18.598;2023-07-13T14:30:13;21.61;66.87
70271;SHT31;57680;54.292;18.598;2023-07-13T14:32:39;21.75;66.60
70271;SHT31;57680;54.292;18.598;2023-07-13T14:35:04;21.90;65.78
70271;SHT31;57680;54.292;18.598;2023-07-13T14:37:30;21.81;66.34
70271;SHT31;57680;54.292;18.598;2023-07-13T14:39:55;21.62;67.07
70271;SHT31;57680;54.292;18.598;2023-07-13T14:42:21;21.38;67.14
70271;SHT31;57680;54.292;18.598;2023-07-13T14:44:46;21.24;68.47
70271;SHT31;57680;54.292;18.598;2023-07-13T14:47:12;21.07;68.90
70271;SHT31;57680;54.292;18.598;2023-07-13T14:49:40;20.91;68.80
70271;SHT31;57680;54.292;18.598;2023-07-13T14:52:16;21.00;68.73
70271;SHT31;57680;54.292;18.598;2023-07-13T14:54:43;21.10;65.68
70271;SHT31;57680;54.292;18.598;2023-07-13T14:57:16;21.17;65.95
70271;SHT31;57680;54.292;18.598;2023-07-13T14:59:42;21.03;64.36
70271;SHT31;57680;54.292;18.598;2023-07-13T15:02:28;20.99;65.69
70271;SHT31;57680;54.292;18.598;2023-07-13T15:04:55;20.94;65.70
70271;SHT31;57680;54.292;18.598;2023-07-13T15:07:21;20.91;65.80
70271;SHT31;57680;54.292;18.598;2023-07-13T15:09:47;20.84;65.81
70271;SHT31;57680;54.292;18.598;2023-07-13T15:12:13;20.77;65.36
70271;SHT31;57680;54.292;18.598;2023-07-13T15:14:39;20.86;66.71
70271;SHT31;57680;54.292;18.598;2023-07-13T15:17:05;21.03;67.15
70271;SHT31;57680;54.292;18.598;2023-07-13T15:19:32;21.08;66.88
70271;SHT31;57680;54.292;18.598;2023-07-13T15:21:58;20.96;66.98
70271;SHT31;57680;54.292;18.598;2023-07-13T15:24:24;20.89;66.83
70271;SHT31;57680;54.292;18.598;2023-07-13T15:26:49;20.86;66.77
70271;SHT31;57680;54.292;18.598;2023-07-13T15:29:16;20.79;66.67
70271;SHT31;57680;54.292;18.598;2023-07-13T15:31:42;20.68;65.91
70271;SHT31;57680;54.292;18.598;2023-07-13T15:34:16;20.70;66.14
70271;SHT31;57680;54.292;18.598;2023-07-13T15:36:43;20.77;65.33
70271;SHT31;57680;54.292;18.598;2023-07-13T15:39:14;20.86;65.81
70271;SHT31;57680;54.292;18.598;2023-07-13T15:41:40;20.90;65.69
70271;SHT31;57680;54.292;18.598;2023-07-13T15:46:46;20.93;64.39
70271;SHT31;57680;54.292;18.598;2023-07-13T15:49:11;20.86;64.56
70271;SHT31;57680;54.292;18.598;2023-07-13T15:51:37;20.84;64.68
70271;SHT31;57680;54.292;18.598;2023-07-13T15:54:03;20.87;64.92
70271;SHT31;57680;54.292;18.598;2023-07-13T15:56:29;20.89;65.26
70271;SHT31;57680;54.292;18.598;2023-07-13T15:58:59;20.93;64.77
70271;SHT31;57680;54.292;18.598;2023-07-13T16:01:24;20.87;64.43
70271;SHT31;57680;54.292;18.598;2023-07-13T16:03:51;20.90;63.96